sensor_id;sensor_type;location;lat;lon;timestamp;P1;durP1;ratioP1;P2;durP2;ratioP2
34204;SDS011;20471;49.680;20.074;2024-01-30T00:02:03;51.30;;;27.00;;
34204;SDS011;20471;49.680;20.074;2024-01-30T00:04:31;51.10;;;29.20;;
34204;SDS011;20471;49.680;20.074;2024-01-30T00:06:59;54.30;;;31.60;;
34204;SDS011;20471;49.680;20.074;2024-01-30T00:09:26;53.50;;;31.20;;
34204;SDS011;20471;49.680;20.074;2024-01-30T00:11:54;41.80;;;25.00;;
34204;SDS011;20471;49.680;20.074;2024-01-30T00:14:22;39.70;;;23.80;;
34204;SDS011;20471;49.680;20.074;2024-01-30T00:16:50;35.70;;;21.60;;
34204;SDS011;20471;49.680;20.074;2024-01-30T00:19:19;37.30;;;21.60;;
34204;SDS011;20471;49.680;20.074;2024-01-30T00:21:46;41.30;;;23.90;;
34204;SDS011;20471;49.680;20.074;2024-01-30T00:24:14;40.30;;;23.90;;
34204;SDS011;20471;49.680;20.074;2024-01-30T00:26:42;30.50;;;17.30;;
34204;SDS011;20471;49.680;20.074;2024-01-30T00:29:10;27.70;;;16.30;;
34204;SDS011;20471;49.680;20.074;2024-01-30T00:31:38;26.60;;;16.30;;
34204;SDS011;20471;49.680;20.074;2024-01-30T00:34:06;26.80;;;15.20;;
34204;SDS011;20471;49.680;20.074;2024-01-30T00:36:36;25.90;;;15.30;;
34204;SDS011;20471;49.680;20.074;2024-01-30T00:39:04;25.90;;;15.30;;
34204;SDS011;20471;49.680;20.074;2024-01-30T00:41:35;24.10;;;15.30;;
34204;SDS011;20471;49.680;20.074;2024-01-30T00:44:03;23.60;;;14.70;;
34204;SDS011;20471;49.680;20.074;2024-01-30T00:46:31;24.60;;;14.90;;
34204;SDS011;20471;49.680;20.074;2024-01-30T00:48:59;27.30;;;16.00;;
34204;SDS011;20471;49.680;20.074;2024-01-30T00:51:26;25.50;;;15.60;;
34204;SDS011;20471;49.680;20.074;2024-01-30T00:53:56;25.80;;;15.50;;
34204;SDS011;20471;49.680;20.074;2024-01-30T00:56:23;26.70;;;15.40;;
34204;SDS011;20471;49.680;20.074;2024-01-30T00:58:51;22.10;;;14.30;;
34204;SDS011;20471;49.680;20.074;2024-01-30T01:01:19;24.70;;;14.20;;
34204;SDS011;20471;49.680;20.074;2024-01-30T01:03:47;25.40;;;15.60;;
34204;SDS011;20471;49.680;20.074;2024-01-30T01:06:14;22.30;;;14.70;;
34204;SDS011;20471;49.680;20.074;2024-01-30T01:08:42;23.00;;;14.30;;
34204;SDS011;20471;49.680;20.074;2024-01-30T01:11:10;22.60;;;14.30;;
34204;SDS011;20471;49.680;20.074;2024-01-30T01:13:37;22.90;;;14.30;;
34204;SDS011;20471;49.680;20.074;2024-01-30T01:16:05;22.80;;;13.90;;
34204;SDS011;20471;49.680;20.074;2024-01-30T01:18:33;22.80;;;13.70;;
34204;SDS011;20471;49.680;20.074;2024-01-30T01:21:01;22.30;;;13.30;;
34204;SDS011;20471;49.680;20.074;2024-01-30T01:23:28;20.20;;;12.90;;
34204;SDS011;20471;49.680;20.074;2024-01-30T01:25:56;17.90;;;10.90;;
34204;SDS011;20471;49.680;20.074;2024-01-30T01:28:26;17.00;;;11.10;;
34204;SDS011;20471;49.680;20.074;2024-01-30T01:30:53;18.70;;;12.20;;
34204;SDS011;20471;49.680;20.074;2024-01-30T01:33:25;13.30;;;8.80;;
34204;SDS011;20471;49.680;20.074;2024-01-30T01:35:53;19.00;;;12.10;;
34204;SDS011;20471;49.680;20.074;2024-01-30T01:38:20;19.60;;;12.30;;
34204;SDS011;20471;49.680;20.074;2024-01-30T01:40:48;27.50;;;21.70;;
34204;SDS011;20471;49.680;20.074;2024-01-30T01:43:16;19.30;;;13.80;;
34204;SDS011;20471;49.680;20.074;2024-01-30T01:45:44;21.50;;;12.70;;
34204;SDS011;20471;49.680;20.074;2024-01-30T01:48:12;21.40;;;12.50;;
34204;SDS011;20471;49.680;20.074;2024-01-30T01:50:41;20.80;;;13.60;;
34204;SDS011;20471;49.680;20.074;2024-01-30T01:53:10;21.90;;;13.00;;
34204;SDS011;20471;49.680;20.074;2024-01-30T01:55:38;20.30;;;13.00;;
34204;SDS011;20471;49.680;20.074;2024-01-30T01:58:05;20.10;;;12.80;;
34204;SDS011;20471;49.680;20.074;2024-01-30T02:00:35;17.60;;;11.90;;
34204;SDS011;20471;49.680;20.074;2024-01-30T02:03:05;17.70;;;11.70;;
34204;SDS011;20471;49.680;20.074;2024-01-30T02:05:35;18.60;;;11.90;;
34204;SDS011;20471;49.680;20.074;2024-01-30T02:08:04;19.60;;;12.20;;
34204;SDS011;20471;49.680;20.074;2024-01-30T02:10:33;20.50;;;12.10;;
34204;SDS011;20471;49.680;20.074;2024-01-30T02:13:00;18.60;;;12.00;;
34204;SDS011;20471;49.680;20.074;2024-01-30T02:15:28;20.00;;;11.80;;
34204;SDS011;20471;49.680;20.074;2024-01-30T02:17:56;18.30;;;12.10;;
34204;SDS011;20471;49.680;20.074;2024-01-30T02:20:24;16.70;;;11.10;;
34204;SDS011;20471;49.680;20.074;2024-01-30T02:22:53;18.20;;;10.90;;
34204;SDS011;20471;49.680;20.074;2024-01-30T02:25:33;19.90;;;11.80;;
34204;SDS011;20471;49.680;20.074;2024-01-30T02:28:02;17.80;;;11.00;;
34204;SDS011;20471;49.680;20.074;2024-01-30T02:30:30;16.60;;;10.70;;
34204;SDS011;20471;49.680;20.074;2024-01-30T02:32:57;16.10;;;10.40;;
34204;SDS011;20471;49.680;20.074;2024-01-30T02:35:25;16.90;;;10.60;;
34204;SDS011;20471;49.680;20.074;2024-01-30T02:37:53;16.30;;;12.00;;
34204;SDS011;20471;49.680;20.074;2024-01-30T02:40:20;19.10;;;12.60;;
34204;SDS011;20471;49.680;20.074;2024-01-30T02:42:48;18.50;;;10.60;;
34204;SDS011;20471;49.680;20.074;2024-01-30T02:45:16;14.10;;;9.60;;
34204;SDS011;20471;49.680;20.074;2024-01-30T02:47:44;14.80;;;9.10;;
34204;SDS011;20471;49.680;20.074;2024-01-30T02:50:13;26.40;;;14.50;;
34204;SDS011;20471;49.680;20.074;2024-01-30T02:52:41;21.30;;;12.20;;
34204;SDS011;20471;49.680;20.074;2024-01-30T02:55:10;16.70;;;10.20;;
34204;SDS011;20471;49.680;20.074;2024-01-30T02:57:38;14.30;;;8.50;;
34204;SDS011;20471;49.680;20.074;2024-01-30T03:00:07;11.90;;;8.40;;
34204;SDS011;20471;49.680;20.074;2024-01-30T03:02:36;13.10;;;8.40;;
34204;SDS011;20471;49.680;20.074;2024-01-30T03:05:05;13.20;;;9.10;;
34204;SDS011;20471;49.680;20.074;2024-01-30T03:07:33;11.80;;;8.30;;
34204;SDS011;20471;49.680;20.074;2024-01-30T03:10:01;12.50;;;8.30;;
34204;SDS011;20471;49.680;20.074;2024-01-30T03:12:30;13.20;;;8.30;;
34204;SDS011;20471;49.680;20.074;2024-01-30T03:14:57;12.30;;;8.20;;
34204;SDS011;20471;49.680;20.074;2024-01-30T03:17:25;12.20;;;8.40;;
34204;SDS011;20471;49.680;20.074;2024-01-30T03:19:53;14.00;;;8.70;;
34204;SDS011;20471;49.680;20.074;2024-01-30T03:22:20;14.80;;;9.20;;
34204;SDS011;20471;49.680;20.074;2024-01-30T03:24:48;12.70;;;8.60;;
34204;SDS011;20471;49.680;20.074;2024-01-30T03:27:16;11.80;;;8.20;;
34204;SDS011;20471;49.680;20.074;2024-01-30T03:29:44;11.10;;;7.70;;
34204;SDS011;20471;49.680;20.074;2024-01-30T03:32:11;15.60;;;9.50;;
34204;SDS011;20471;49.680;20.074;2024-01-30T03:34:39;16.00;;;9.80;;
34204;SDS011;20471;49.680;20.074;2024-01-30T03:37:07;17.30;;;10.90;;
34204;SDS011;20471;49.680;20.074;2024-01-30T03:39:34;15.40;;;10.40;;
34204;SDS011;20471;49.680;20.074;2024-01-30T03:42:03;12.50;;;8.90;;
34204;SDS011;20471;49.680;20.074;2024-01-30T03:44:30;13.70;;;8.80;;
34204;SDS011;20471;49.680;20.074;2024-01-30T03:46:58;13.40;;;8.50;;
34204;SDS011;20471;49.680;20.074;2024-01-30T03:49:26;15.10;;;10.90;;
34204;SDS011;20471;49.680;20.074;2024-01-30T03:51:53;21.10;;;13.10;;
34204;SDS011;20471;49.680;20.074;2024-01-30T03:54:21;27.00;;;15.50;;
34204;SDS011;20471;49.680;20.074;2024-01-30T03:56:49;29.20;;;15.60;;
34204;SDS011;20471;49.680;20.074;2024-01-30T03:59:16;21.40;;;12.90;;
34204;SDS011;20471;49.680;20.074;2024-01-30T04:01:48;22.60;;;12.40;;
34204;SDS011;20471;49.680;20.074;2024-01-30T04:04:16;22.70;;;11.50;;
34204;SDS011;20471;49.680;20.074;2024-01-30T04:06:45;26.90;;;13.00;;
34204;SDS011;20471;49.680;20.074;2024-01-30T04:09:13;24.40;;;12.30;;
34204;SDS011;20471;49.680;20.074;2024-01-30T04:11:41;20.40;;;11.10;;
34204;SDS011;20471;49.680;20.074;2024-01-30T04:14:09;23.60;;;12.00;;
34204;SDS011;20471;49.680;20.074;2024-01-30T04:16:36;25.10;;;12.60;;
34204;SDS011;20471;49.680;20.074;2024-01-30T04:19:04;26.40;;;12.90;;
34204;SDS011;20471;49.680;20.074;2024-01-30T04:21:32;23.90;;;12.70;;
34204;SDS011;20471;49.680;20.074;2024-01-30T04:23:59;23.10;;;11.70;;
34204;SDS011;20471;49.680;20.074;2024-01-30T04:26:27;22.50;;;12.00;;
34204;SDS011;20471;49.680;20.074;2024-01-30T04:28:55;27.90;;;12.90;;
34204;SDS011;20471;49.680;20.074;2024-01-30T04:31:22;20.60;;;13.20;;
34204;SDS011;20471;49.680;20.074;2024-01-30T04:33:50;24.20;;;13.30;;
34204;SDS011;20471;49.680;20.074;2024-01-30T04:36:18;22.90;;;12.30;;
34204;SDS011;20471;49.680;20.074;2024-01-30T04:38:45;21.30;;;12.20;;
34204;SDS011;20471;49.680;20.074;2024-01-30T07:42:19;50.00;;;30.60;;
34204;SDS011;20471;49.680;20.074;2024-01-30T07:44:46;49.90;;;30.10;;
34204;SDS011;20471;49.680;20.074;2024-01-30T07:47:14;56.20;;;33.30;;
34204;SDS011;20471;49.680;20.074;2024-01-30T07:49:42;54.00;;;31.70;;
34204;SDS011;20471;49.680;20.074;2024-01-30T07:52:09;50.10;;;29.60;;
34204;SDS011;20471;49.680;20.074;2024-01-30T07:54:37;48.00;;;28.80;;
34204;SDS011;20471;49.680;20.074;2024-01-30T07:57:08;50.60;;;28.80;;
34204;SDS011;20471;49.680;20.074;2024-01-30T07:59:36;47.40;;;29.20;;
34204;SDS011;20471;49.680;20.074;2024-01-30T08:02:03;45.90;;;27.40;;
34204;SDS011;20471;49.680;20.074;2024-01-30T08:04:31;44.00;;;24.60;;
34204;SDS011;20471;49.680;20.074;2024-01-30T08:06:59;34.70;;;21.70;;
34204;SDS011;20471;49.680;20.074;2024-01-30T08:09:27;44.20;;;26.40;;
34204;SDS011;20471;49.680;20.074;2024-01-30T08:11:54;42.10;;;25.50;;
34204;SDS011;20471;49.680;20.074;2024-01-30T08:14:22;36.60;;;20.40;;
34204;SDS011;20471;49.680;20.074;2024-01-30T08:16:50;36.00;;;21.30;;
34204;SDS011;20471;49.680;20.074;2024-01-30T08:19:18;37.70;;;20.30;;
34204;SDS011;20471;49.680;20.074;2024-01-30T08:21:46;30.40;;;18.00;;
34204;SDS011;20471;49.680;20.074;2024-01-30T08:24:14;35.80;;;20.80;;
34204;SDS011;20471;49.680;20.074;2024-01-30T08:26:41;34.20;;;20.10;;
34204;SDS011;20471;49.680;20.074;2024-01-30T08:29:09;29.40;;;18.50;;
34204;SDS011;20471;49.680;20.074;2024-01-30T08:31:37;28.40;;;16.10;;
34204;SDS011;20471;49.680;20.074;2024-01-30T08:34:04;29.20;;;15.50;;
34204;SDS011;20471;49.680;20.074;2024-01-30T08:36:32;22.30;;;13.50;;
34204;SDS011;20471;49.680;20.074;2024-01-30T08:39:00;23.90;;;13.10;;
34204;SDS011;20471;49.680;20.074;2024-01-30T08:41:28;20.50;;;11.20;;
34204;SDS011;20471;49.680;20.074;2024-01-30T08:43:56;19.70;;;11.00;;
34204;SDS011;20471;49.680;20.074;2024-01-30T08:46:23;21.00;;;11.90;;
34204;SDS011;20471;49.680;20.074;2024-01-30T08:48:51;19.00;;;12.00;;
34204;SDS011;20471;49.680;20.074;2024-01-30T08:51:19;19.30;;;12.00;;
34204;SDS011;20471;49.680;20.074;2024-01-30T08:53:47;18.20;;;10.60;;
34204;SDS011;20471;49.680;20.074;2024-01-30T08:56:14;19.80;;;10.50;;
34204;SDS011;20471;49.680;20.074;2024-01-30T08:58:42;14.20;;;9.40;;
34204;SDS011;20471;49.680;20.074;2024-01-30T09:01:10;19.90;;;11.30;;
34204;SDS011;20471;49.680;20.074;2024-01-30T09:03:38;19.30;;;10.00;;
34204;SDS011;20471;49.680;20.074;2024-01-30T09:06:10;18.70;;;9.70;;
34204;SDS011;20471;49.680;20.074;2024-01-30T09:08:38;15.90;;;9.40;;
34204;SDS011;20471;49.680;20.074;2024-01-30T09:11:11;18.80;;;11.20;;
34204;SDS011;20471;49.680;20.074;2024-01-30T09:13:40;24.10;;;12.20;;
34204;SDS011;20471;49.680;20.074;2024-01-30T09:16:09;24.90;;;14.60;;
34204;SDS011;20471;49.680;20.074;2024-01-30T09:18:37;23.80;;;14.00;;
34204;SDS011;20471;49.680;20.074;2024-01-30T09:21:05;23.30;;;13.20;;
34204;SDS011;20471;49.680;20.074;2024-01-30T09:23:33;25.80;;;13.30;;
34204;SDS011;20471;49.680;20.074;2024-01-30T09:26:01;23.40;;;11.90;;
34204;SDS011;20471;49.680;20.074;2024-01-30T09:28:29;20.00;;;12.80;;
34204;SDS011;20471;49.680;20.074;2024-01-30T09:30:56;20.10;;;11.90;;
34204;SDS011;20471;49.680;20.074;2024-01-30T09:33:24;20.10;;;10.20;;
34204;SDS011;20471;49.680;20.074;2024-01-30T09:35:52;20.20;;;11.40;;
34204;SDS011;20471;49.680;20.074;2024-01-30T09:38:19;19.00;;;10.10;;
34204;SDS011;20471;49.680;20.074;2024-01-30T09:40:49;17.00;;;9.40;;
34204;SDS011;20471;49.680;20.074;2024-01-30T09:43:22;13.60;;;7.90;;
34204;SDS011;20471;49.680;20.074;2024-01-30T09:45:51;14.00;;;7.80;;
34204;SDS011;20471;49.680;20.074;2024-01-30T09:48:20;10.80;;;7.30;;
34204;SDS011;20471;49.680;20.074;2024-01-30T09:50:50;12.20;;;7.50;;
34204;SDS011;20471;49.680;20.074;2024-01-30T09:53:19;13.60;;;7.60;;
34204;SDS011;20471;49.680;20.074;2024-01-30T09:55:48;17.50;;;9.60;;
34204;SDS011;20471;49.680;20.074;2024-01-30T09:58:18;15.00;;;9.50;;
34204;SDS011;20471;49.680;20.074;2024-01-30T10:00:46;16.10;;;9.30;;
34204;SDS011;20471;49.680;20.074;2024-01-30T10:03:13;13.10;;;9.20;;
34204;SDS011;20471;49.680;20.074;2024-01-30T10:05:42;16.70;;;9.60;;
34204;SDS011;20471;49.680;20.074;2024-01-30T10:08:19;17.90;;;10.10;;
34204;SDS011;20471;49.680;20.074;2024-01-30T10:10:47;16.00;;;9.60;;
34204;SDS011;20471;49.680;20.074;2024-01-30T10:13:16;21.40;;;10.30;;
34204;SDS011;20471;49.680;20.074;2024-01-30T10:15:44;22.10;;;11.00;;
34204;SDS011;20471;49.680;20.074;2024-01-30T10:18:14;21.80;;;10.30;;
34204;SDS011;20471;49.680;20.074;2024-01-30T10:20:42;19.50;;;9.70;;
34204;SDS011;20471;49.680;20.074;2024-01-30T10:23:10;14.60;;;9.30;;
34204;SDS011;20471;49.680;20.074;2024-01-30T10:25:39;13.10;;;7.70;;
34204;SDS011;20471;49.680;20.074;2024-01-30T10:28:08;13.10;;;8.10;;
34204;SDS011;20471;49.680;20.074;2024-01-30T10:30:35;15.60;;;9.60;;
34204;SDS011;20471;49.680;20.074;2024-01-30T10:33:03;28.80;;;14.10;;
34204;SDS011;20471;49.680;20.074;2024-01-30T10:35:31;33.70;;;17.80;;
34204;SDS011;20471;49.680;20.074;2024-01-30T10:38:00;29.40;;;15.90;;
34204;SDS011;20471;49.680;20.074;2024-01-30T10:40:30;30.00;;;16.60;;
34204;SDS011;20471;49.680;20.074;2024-01-30T10:43:02;21.30;;;13.10;;
34204;SDS011;20471;49.680;20.074;2024-01-30T10:48:03;18.10;;;9.10;;
34204;SDS011;20471;49.680;20.074;2024-01-30T10:50:32;20.00;;;10.40;;
34204;SDS011;20471;49.680;20.074;2024-01-30T10:53:02;17.30;;;9.80;;
34204;SDS011;20471;49.680;20.074;2024-01-30T10:55:31;13.70;;;9.40;;
34204;SDS011;20471;49.680;20.074;2024-01-30T10:57:59;14.80;;;8.40;;
34204;SDS011;20471;49.680;20.074;2024-01-30T11:00:27;20.20;;;9.70;;
34204;SDS011;20471;49.680;20.074;2024-01-30T11:02:56;14.20;;;8.70;;
34204;SDS011;20471;49.680;20.074;2024-01-30T11:05:25;13.00;;;8.50;;
34204;SDS011;20471;49.680;20.074;2024-01-30T11:07:53;14.00;;;8.50;;
34204;SDS011;20471;49.680;20.074;2024-01-30T11:10:21;15.40;;;8.50;;
34204;SDS011;20471;49.680;20.074;2024-01-30T11:12:52;16.00;;;8.20;;
34204;SDS011;20471;49.680;20.074;2024-01-30T11:15:20;11.10;;;7.50;;
34204;SDS011;20471;49.680;20.074;2024-01-30T11:22:46;11.80;;;8.00;;
34204;SDS011;20471;49.680;20.074;2024-01-30T11:25:15;17.30;;;8.90;;
34204;SDS011;20471;49.680;20.074;2024-01-30T11:27:45;14.40;;;8.00;;
34204;SDS011;20471;49.680;20.074;2024-01-30T11:32:58;12.40;;;7.60;;
34204;SDS011;20471;49.680;20.074;2024-01-30T11:35:31;16.10;;;8.50;;
34204;SDS011;20471;49.680;20.074;2024-01-30T11:38:01;15.10;;;7.60;;
34204;SDS011;20471;49.680;20.074;2024-01-30T11:40:30;11.50;;;7.60;;
34204;SDS011;20471;49.680;20.074;2024-01-30T11:42:59;11.30;;;7.30;;
34204;SDS011;20471;49.680;20.074;2024-01-30T11:45:29;12.80;;;8.00;;
34204;SDS011;20471;49.680;20.074;2024-01-30T11:47:57;11.30;;;7.50;;
34204;SDS011;20471;49.680;20.074;2024-01-30T11:50:26;15.70;;;8.00;;
34204;SDS011;20471;49.680;20.074;2024-01-30T11:52:54;12.50;;;7.90;;
34204;SDS011;20471;49.680;20.074;2024-01-30T11:55:23;12.10;;;7.80;;
34204;SDS011;20471;49.680;20.074;2024-01-30T11:57:51;14.70;;;8.00;;
34204;SDS011;20471;49.680;20.074;2024-01-30T12:02:52;11.00;;;7.50;;
34204;SDS011;20471;49.680;20.074;2024-01-30T12:05:24;11.70;;;7.80;;
34204;SDS011;20471;49.680;20.074;2024-01-30T12:07:52;12.60;;;7.50;;
34204;SDS011;20471;49.680;20.074;2024-01-30T12:10:21;12.90;;;8.70;;
34204;SDS011;20471;49.680;20.074;2024-01-30T12:12:49;10.70;;;8.20;;
34204;SDS011;20471;49.680;20.074;2024-01-30T12:15:21;13.60;;;8.60;;
34204;SDS011;20471;49.680;20.074;2024-01-30T12:17:49;11.90;;;7.80;;
34204;SDS011;20471;49.680;20.074;2024-01-30T12:20:18;17.50;;;10.70;;
34204;SDS011;20471;49.680;20.074;2024-01-30T12:22:48;12.60;;;8.20;;
34204;SDS011;20471;49.680;20.074;2024-01-30T12:25:17;12.90;;;8.30;;
34204;SDS011;20471;49.680;20.074;2024-01-30T12:27:47;14.00;;;9.00;;
34204;SDS011;20471;49.680;20.074;2024-01-30T12:30:18;13.00;;;7.70;;
34204;SDS011;20471;49.680;20.074;2024-01-30T12:32:49;12.40;;;7.70;;
34204;SDS011;20471;49.680;20.074;2024-01-30T12:35:18;11.40;;;8.20;;
34204;SDS011;20471;49.680;20.074;2024-01-30T12:37:48;13.60;;;8.30;;
34204;SDS011;20471;49.680;20.074;2024-01-30T12:40:17;12.40;;;8.10;;
34204;SDS011;20471;49.680;20.074;2024-01-30T12:42:48;14.90;;;8.80;;
34204;SDS011;20471;49.680;20.074;2024-01-30T12:45:16;21.40;;;11.90;;
34204;SDS011;20471;49.680;20.074;2024-01-30T12:47:46;21.00;;;11.60;;
34204;SDS011;20471;49.680;20.074;2024-01-30T12:50:14;16.30;;;10.60;;
34204;SDS011;20471;49.680;20.074;2024-01-30T12:52:43;18.50;;;11.00;;
34204;SDS011;20471;49.680;20.074;2024-01-30T12:55:11;24.60;;;12.60;;
34204;SDS011;20471;49.680;20.074;2024-01-30T12:57:39;19.10;;;11.10;;
34204;SDS011;20471;49.680;20.074;2024-01-30T13:00:08;13.60;;;8.50;;
34204;SDS011;20471;49.680;20.074;2024-01-30T13:02:36;16.80;;;10.80;;
34204;SDS011;20471;49.680;20.074;2024-01-30T13:05:05;19.10;;;10.70;;
34204;SDS011;20471;49.680;20.074;2024-01-30T13:07:34;13.30;;;8.60;;
34204;SDS011;20471;49.680;20.074;2024-01-30T13:10:02;13.40;;;9.30;;
34204;SDS011;20471;49.680;20.074;2024-01-30T13:12:30;16.30;;;9.50;;
34204;SDS011;20471;49.680;20.074;2024-01-30T13:15:00;13.90;;;8.20;;
34204;SDS011;20471;49.680;20.074;2024-01-30T13:17:30;15.20;;;8.80;;
34204;SDS011;20471;49.680;20.074;2024-01-30T13:19:57;13.10;;;7.30;;
34204;SDS011;20471;49.680;20.074;2024-01-30T13:22:25;13.00;;;8.10;;
34204;SDS011;20471;49.680;20.074;2024-01-30T13:24:53;14.20;;;7.30;;
34204;SDS011;20471;49.680;20.074;2024-01-30T13:27:21;11.70;;;7.00;;
34204;SDS011;20471;49.680;20.074;2024-01-30T13:29:48;11.10;;;7.10;;
34204;SDS011;20471;49.680;20.074;2024-01-30T13:32:16;11.90;;;7.20;;
34204;SDS011;20471;49.680;20.074;2024-01-30T13:34:44;13.30;;;7.10;;
34204;SDS011;20471;49.680;20.074;2024-01-30T13:37:11;13.10;;;6.70;;
34204;SDS011;20471;49.680;20.074;2024-01-30T13:39:39;10.70;;;6.80;;
34204;SDS011;20471;49.680;20.074;2024-01-30T13:42:07;9.00;;;6.10;;
34204;SDS011;20471;49.680;20.074;2024-01-30T13:44:35;12.60;;;6.40;;
34204;SDS011;20471;49.680;20.074;2024-01-30T13:47:03;14.90;;;6.80;;
34204;SDS011;20471;49.680;20.074;2024-01-30T13:49:31;10.50;;;6.70;;
34204;SDS011;20471;49.680;20.074;2024-01-30T13:51:59;9.80;;;6.50;;
34204;SDS011;20471;49.680;20.074;2024-01-30T13:54:27;10.20;;;6.80;;
34204;SDS011;20471;49.680;20.074;2024-01-30T13:56:54;11.60;;;6.70;;
34204;SDS011;20471;49.680;20.074;2024-01-30T13:59:22;10.10;;;6.40;;
34204;SDS011;20471;49.680;20.074;2024-01-30T14:01:52;10.40;;;6.80;;
34204;SDS011;20471;49.680;20.074;2024-01-30T14:04:19;10.00;;;6.80;;
34204;SDS011;20471;49.680;20.074;2024-01-30T14:06:49;10.90;;;7.20;;
34204;SDS011;20471;49.680;20.074;2024-01-30T14:09:17;11.40;;;7.50;;
34204;SDS011;20471;49.680;20.074;2024-01-30T14:11:44;12.80;;;7.40;;
34204;SDS011;20471;49.680;20.074;2024-01-30T14:14:12;11.20;;;7.60;;
34204;SDS011;20471;49.680;20.074;2024-01-30T14:16:40;13.10;;;7.90;;
34204;SDS011;20471;49.680;20.074;2024-01-30T14:19:08;11.20;;;7.30;;
34204;SDS011;20471;49.680;20.074;2024-01-30T14:21:35;10.00;;;6.00;;
34204;SDS011;20471;49.680;20.074;2024-01-30T14:24:04;9.20;;;6.70;;
34204;SDS011;20471;49.680;20.074;2024-01-30T14:26:32;11.00;;;6.80;;
34204;SDS011;20471;49.680;20.074;2024-01-30T14:29:00;11.40;;;6.70;;
34204;SDS011;20471;49.680;20.074;2024-01-30T14:31:27;12.30;;;7.70;;
34204;SDS011;20471;49.680;20.074;2024-01-30T14:33:55;11.70;;;7.00;;
34204;SDS011;20471;49.680;20.074;2024-01-30T14:36:23;10.30;;;7.50;;
34204;SDS011;20471;49.680;20.074;2024-01-30T14:38:54;12.70;;;7.30;;
34204;SDS011;20471;49.680;20.074;2024-01-30T14:41:22;13.90;;;10.70;;
34204;SDS011;20471;49.680;20.074;2024-01-30T14:43:50;12.00;;;7.60;;
34204;SDS011;20471;49.680;20.074;2024-01-30T14:46:17;19.20;;;10.80;;
34204;SDS011;20471;49.680;20.074;2024-01-30T14:48:45;13.50;;;8.50;;
34204;SDS011;20471;49.680;20.074;2024-01-30T14:51:13;11.00;;;7.00;;
34204;SDS011;20471;49.680;20.074;2024-01-30T14:53:41;12.80;;;7.80;;
34204;SDS011;20471;49.680;20.074;2024-01-30T14:56:08;15.00;;;8.80;;
34204;SDS011;20471;49.680;20.074;2024-01-30T14:58:36;11.60;;;7.50;;
34204;SDS011;20471;49.680;20.074;2024-01-30T15:01:04;11.80;;;7.90;;
34204;SDS011;20471;49.680;20.074;2024-01-30T15:03:33;13.40;;;8.10;;
34204;SDS011;20471;49.680;20.074;2024-01-30T15:06:02;11.60;;;8.00;;
34204;SDS011;20471;49.680;20.074;2024-01-30T15:08:31;13.40;;;8.00;;
34204;SDS011;20471;49.680;20.074;2024-01-30T15:10:58;12.40;;;6.90;;
34204;SDS011;20471;49.680;20.074;2024-01-30T15:13:27;12.10;;;6.50;;
34204;SDS011;20471;49.680;20.074;2024-01-30T15:15:55;12.60;;;7.50;;
34204;SDS011;20471;49.680;20.074;2024-01-30T15:18:22;11.90;;;7.30;;
34204;SDS011;20471;49.680;20.074;2024-01-30T15:20:50;13.40;;;7.40;;
34204;SDS011;20471;49.680;20.074;2024-01-30T15:23:18;10.60;;;7.30;;
34204;SDS011;20471;49.680;20.074;2024-01-30T15:25:45;13.20;;;7.60;;
34204;SDS011;20471;49.680;20.074;2024-01-30T15:28:13;16.80;;;7.90;;
34204;SDS011;20471;49.680;20.074;2024-01-30T15:30:41;12.80;;;7.50;;
34204;SDS011;20471;49.680;20.074;2024-01-30T15:33:10;15.20;;;8.90;;
34204;SDS011;20471;49.680;20.074;2024-01-30T15:35:38;15.00;;;8.40;;
34204;SDS011;20471;49.680;20.074;2024-01-30T15:38:06;20.50;;;10.00;;
34204;SDS011;20471;49.680;20.074;2024-01-30T15:40:35;15.70;;;9.70;;
34204;SDS011;20471;49.680;20.074;2024-01-30T15:43:02;15.40;;;9.40;;
34204;SDS011;20471;49.680;20.074;2024-01-30T15:45:30;13.70;;;9.30;;
34204;SDS011;20471;49.680;20.074;2024-01-30T15:47:58;15.70;;;9.60;;
34204;SDS011;20471;49.680;20.074;2024-01-30T15:50:26;14.50;;;9.30;;
34204;SDS011;20471;49.680;20.074;2024-01-30T15:52:54;14.30;;;9.20;;
34204;SDS011;20471;49.680;20.074;2024-01-30T15:55:22;15.60;;;9.40;;
34204;SDS011;20471;49.680;20.074;2024-01-30T15:57:50;14.30;;;9.40;;
34204;SDS011;20471;49.680;20.074;2024-01-30T16:00:18;16.40;;;10.30;;
34204;SDS011;20471;49.680;20.074;2024-01-30T16:02:45;19.10;;;10.30;;
34204;SDS011;20471;49.680;20.074;2024-01-30T16:05:13;17.90;;;10.90;;
34204;SDS011;20471;49.680;20.074;2024-01-30T16:07:41;18.10;;;10.00;;
34204;SDS011;20471;49.680;20.074;2024-01-30T16:10:09;20.00;;;11.20;;
34204;SDS011;20471;49.680;20.074;2024-01-30T16:12:42;16.10;;;10.60;;
34204;SDS011;20471;49.680;20.074;2024-01-30T16:15:12;21.80;;;12.40;;
34204;SDS011;20471;49.680;20.074;2024-01-30T16:17:41;20.30;;;12.70;;
34204;SDS011;20471;49.680;20.074;2024-01-30T16:20:09;19.80;;;11.30;;
34204;SDS011;20471;49.680;20.074;2024-01-30T16:22:37;20.00;;;10.90;;
34204;SDS011;20471;49.680;20.074;2024-01-30T16:25:05;23.70;;;11.50;;
34204;SDS011;20471;49.680;20.074;2024-01-30T16:27:33;18.40;;;10.50;;
34204;SDS011;20471;49.680;20.074;2024-01-30T16:30:00;19.30;;;11.00;;
34204;SDS011;20471;49.680;20.074;2024-01-30T16:32:29;16.60;;;10.00;;
34204;SDS011;20471;49.680;20.074;2024-01-30T16:34:57;18.30;;;10.90;;
34204;SDS011;20471;49.680;20.074;2024-01-30T16:37:25;17.90;;;11.00;;
34204;SDS011;20471;49.680;20.074;2024-01-30T16:39:53;19.90;;;11.50;;
34204;SDS011;20471;49.680;20.074;2024-01-30T16:42:21;22.90;;;11.40;;
34204;SDS011;20471;49.680;20.074;2024-01-30T16:44:48;23.10;;;12.30;;
34204;SDS011;20471;49.680;20.074;2024-01-30T16:47:16;25.70;;;11.40;;
34204;SDS011;20471;49.680;20.074;2024-01-30T16:49:44;23.20;;;13.50;;
34204;SDS011;20471;49.680;20.074;2024-01-30T16:52:12;24.10;;;13.10;;
34204;SDS011;20471;49.680;20.074;2024-01-30T16:54:40;22.40;;;12.20;;
34204;SDS011;20471;49.680;20.074;2024-01-30T16:57:07;21.60;;;12.10;;
34204;SDS011;20471;49.680;20.074;2024-01-30T16:59:35;20.00;;;12.50;;
34204;SDS011;20471;49.680;20.074;2024-01-30T17:02:03;22.80;;;12.30;;
34204;SDS011;20471;49.680;20.074;2024-01-30T17:04:31;18.00;;;11.00;;
34204;SDS011;20471;49.680;20.074;2024-01-30T17:06:59;22.20;;;11.70;;
34204;SDS011;20471;49.680;20.074;2024-01-30T17:09:29;23.00;;;12.40;;
34204;SDS011;20471;49.680;20.074;2024-01-30T17:11:57;16.70;;;10.90;;
34204;SDS011;20471;49.680;20.074;2024-01-30T17:14:26;25.60;;;15.90;;
34204;SDS011;20471;49.680;20.074;2024-01-30T17:16:55;25.90;;;13.60;;
34204;SDS011;20471;49.680;20.074;2024-01-30T17:19:22;24.70;;;13.40;;
34204;SDS011;20471;49.680;20.074;2024-01-30T17:21:50;27.90;;;15.50;;
34204;SDS011;20471;49.680;20.074;2024-01-30T17:24:18;26.70;;;14.80;;
34204;SDS011;20471;49.680;20.074;2024-01-30T17:26:45;22.60;;;12.60;;
34204;SDS011;20471;49.680;20.074;2024-01-30T17:29:13;24.70;;;12.70;;
34204;SDS011;20471;49.680;20.074;2024-01-30T17:31:41;24.20;;;13.30;;
34204;SDS011;20471;49.680;20.074;2024-01-30T17:34:11;25.20;;;13.70;;